createdAt,value
2023-12-21T00:02:08.194Z,14.68
2023-12-21T00:04:35.311Z,9.20
2023-12-21T00:07:02.457Z,12.00
2023-12-21T00:09:29.309Z,8.52
2023-12-21T00:11:57.323Z,8.63
2023-12-21T00:14:28.525Z,10.23
2023-12-21T00:16:55.500Z,8.82
2023-12-21T00:19:22.472Z,8.13
2023-12-21T00:21:49.665Z,8.05
2023-12-21T00:24:16.629Z,7.57
2023-12-21T00:26:43.755Z,7.68
2023-12-21T00:29:10.951Z,5.53
2023-12-21T00:31:37.981Z,3.72
2023-12-21T00:34:05.026Z,4.93
2023-12-21T00:36:31.955Z,5.30
2023-12-21T00:38:59.008Z,9.45
2023-12-21T00:41:26.121Z,7.22
2023-12-21T00:43:53.265Z,5.68
2023-12-21T00:46:20.063Z,8.27
2023-12-21T00:48:46.951Z,3.33
2023-12-21T00:51:13.835Z,6.57
2023-12-21T00:53:40.616Z,7.28
2023-12-21T00:56:08.962Z,4.53
2023-12-21T00:58:35.924Z,4.13
2023-12-21T01:01:03.640Z,4.30
2023-12-21T01:03:30.744Z,4.25
2023-12-21T01:05:57.642Z,3.55
2023-12-21T01:08:24.456Z,2.42
2023-12-21T01:10:51.366Z,2.40
2023-12-21T01:13:18.302Z,2.72
2023-12-21T01:15:45.194Z,4.15
2023-12-21T01:18:12.046Z,2.40
2023-12-21T01:20:38.862Z,2.20
2023-12-21T01:23:05.719Z,2.92
2023-12-21T01:25:32.630Z,0.90
2023-12-21T01:27:59.703Z,0.63
2023-12-21T01:30:27.069Z,3.03
2023-12-21T01:32:54.765Z,1.23
2023-12-21T01:35:21.891Z,2.80
2023-12-21T01:37:49.232Z,3.20
2023-12-21T01:40:16.966Z,0.98
2023-12-21T01:42:44.376Z,1.33
2023-12-21T01:45:11.820Z,2.00
2023-12-21T01:47:38.873Z,1.15
2023-12-21T01:50:06.434Z,2.20
2023-12-21T01:52:33.449Z,0.70
2023-12-21T01:55:00.414Z,0.73
2023-12-21T01:57:27.418Z,1.77
2023-12-21T01:59:54.384Z,0.88
2023-12-21T02:02:21.579Z,0.60
2023-12-21T02:04:48.669Z,0.47
2023-12-21T02:07:16.043Z,2.30
2023-12-21T02:09:43.002Z,1.45
2023-12-21T02:12:10.024Z,3.67
2023-12-21T02:14:37.712Z,1.15
2023-12-21T02:17:06.307Z,0.88
2023-12-21T02:19:33.162Z,1.42
2023-12-21T02:22:03.055Z,1.08
2023-12-21T02:24:30.572Z,0.50
2023-12-21T02:26:57.472Z,2.33
2023-12-21T02:29:24.409Z,0.93
2023-12-21T02:31:51.385Z,1.35
2023-12-21T02:34:18.428Z,0.68
2023-12-21T02:36:45.547Z,1.10
2023-12-21T02:39:12.607Z,0.95
2023-12-21T02:41:39.446Z,1.83
2023-12-21T02:44:06.328Z,5.60
2023-12-21T02:46:33.521Z,6.15
2023-12-21T02:49:00.749Z,8.30
2023-12-21T02:51:27.690Z,6.25
2023-12-21T02:53:54.753Z,7.25
2023-12-21T02:56:21.597Z,5.10
2023-12-21T02:58:48.457Z,4.68
2023-12-21T03:01:15.267Z,3.47
2023-12-21T03:03:42.228Z,2.40
2023-12-21T03:06:09.053Z,4.72
2023-12-21T03:08:35.841Z,2.85
2023-12-21T03:11:02.902Z,2.92
2023-12-21T03:13:29.773Z,1.75
2023-12-21T03:15:56.543Z,6.28
2023-12-21T03:18:23.325Z,3.10
2023-12-21T03:20:50.160Z,3.50
2023-12-21T03:23:16.910Z,3.97
2023-12-21T03:25:43.878Z,2.90
2023-12-21T03:28:11.722Z,4.40
2023-12-21T03:30:39.022Z,4.07
2023-12-21T03:33:06.799Z,2.20
2023-12-21T03:35:33.739Z,3.47
2023-12-21T03:38:00.881Z,3.55
2023-12-21T03:40:28.245Z,3.33
2023-12-21T03:42:55.249Z,2.13
2023-12-21T03:45:22.243Z,2.30
2023-12-21T03:47:51.835Z,2.70
2023-12-21T03:50:19.050Z,3.85
2023-12-21T03:52:46.143Z,1.92
2023-12-21T03:55:13.274Z,3.90
2023-12-21T03:57:41.166Z,2.22
2023-12-21T04:00:09.989Z,2.47
2023-12-21T04:02:38.160Z,2.17
2023-12-21T04:05:05.543Z,2.03
2023-12-21T04:07:32.438Z,2.85
2023-12-21T04:09:59.411Z,42.08
2023-12-21T04:12:26.468Z,10.48
2023-12-21T04:14:53.280Z,5.85
2023-12-21T04:17:20.096Z,3.45
2023-12-21T04:19:46.946Z,3.15
2023-12-21T04:22:13.792Z,9.88
2023-12-21T04:24:41.813Z,7.78
2023-12-21T04:27:08.603Z,9.10
2023-12-21T04:29:35.655Z,12.77
2023-12-21T04:32:02.550Z,9.98
2023-12-21T04:34:29.365Z,9.85
2023-12-21T04:36:56.377Z,9.82
2023-12-21T04:39:24.049Z,9.00
2023-12-21T04:41:51.241Z,9.25
2023-12-21T04:44:18.356Z,9.30
2023-12-21T04:46:50.364Z,6.45
2023-12-21T04:49:19.153Z,7.97
2023-12-21T04:51:47.625Z,4.88
2023-12-21T04:54:14.808Z,8.48
2023-12-21T04:56:45.102Z,11.43
2023-12-21T04:59:12.109Z,8.05
2023-12-21T05:01:39.067Z,20.20
2023-12-21T05:04:07.649Z,22.25
2023-12-21T05:06:34.705Z,23.58
2023-12-21T05:09:01.519Z,12.02
2023-12-21T05:11:28.995Z,13.52
2023-12-21T05:13:56.472Z,12.15
2023-12-21T05:16:25.927Z,13.60
2023-12-21T05:18:52.826Z,16.58
2023-12-21T05:21:19.789Z,22.08
2023-12-21T05:23:46.701Z,20.85
2023-12-21T05:26:14.190Z,12.63
2023-12-21T05:28:43.910Z,16.67
2023-12-21T05:31:11.668Z,18.70
2023-12-21T05:33:38.601Z,17.25
2023-12-21T05:36:05.725Z,19.48
2023-12-21T05:38:32.557Z,20.00
2023-12-21T05:40:59.444Z,22.55
2023-12-21T05:43:31.429Z,21.25
2023-12-21T05:45:58.512Z,23.90
2023-12-21T05:48:25.530Z,21.10
2023-12-21T05:50:52.828Z,22.55
2023-12-21T05:53:19.768Z,25.05
2023-12-21T05:55:46.779Z,22.23
2023-12-21T05:58:13.735Z,19.35
2023-12-21T06:00:40.836Z,24.27
2023-12-21T06:03:08.083Z,22.48
2023-12-21T06:05:34.994Z,27.58
2023-12-21T06:08:01.858Z,20.33
2023-12-21T06:10:28.828Z,36.00
2023-12-21T06:12:55.797Z,38.92
2023-12-21T06:15:23.031Z,35.05
2023-12-21T06:17:50.236Z,24.25
2023-12-21T06:20:17.323Z,34.20
2023-12-21T06:22:44.366Z,23.88
2023-12-21T06:25:12.788Z,32.50
2023-12-21T06:27:39.733Z,56.25
2023-12-21T06:30:07.357Z,46.03
2023-12-21T06:32:34.307Z,41.25
2023-12-21T06:35:01.337Z,40.25
2023-12-21T06:37:28.193Z,39.58
2023-12-21T06:39:56.001Z,64.82
2023-12-21T06:42:23.186Z,46.45
2023-12-21T06:44:50.023Z,43.55
2023-12-21T06:47:16.942Z,31.35
2023-12-21T06:49:43.761Z,25.77
2023-12-21T06:52:10.712Z,32.22
2023-12-21T06:54:37.723Z,19.65
2023-12-21T06:57:04.854Z,41.55
2023-12-21T06:59:31.758Z,59.13
2023-12-21T07:01:58.941Z,56.10
2023-12-21T07:04:25.935Z,41.90
2023-12-21T07:06:52.862Z,40.28
2023-12-21T07:09:20.974Z,68.55
2023-12-21T07:11:49.307Z,83.40
2023-12-21T07:14:16.708Z,77.38
2023-12-21T07:16:43.692Z,60.63
2023-12-21T07:19:10.614Z,56.88
2023-12-21T07:21:37.479Z,60.50
2023-12-21T07:24:04.575Z,85.38
2023-12-21T07:26:32.370Z,60.47
2023-12-21T07:28:59.191Z,81.90
2023-12-21T07:31:26.110Z,52.35
2023-12-21T07:33:53.061Z,44.65
2023-12-21T07:36:19.940Z,44.70
2023-12-21T07:38:46.917Z,59.47
2023-12-21T07:41:14.797Z,82.97
2023-12-21T07:43:42.917Z,52.83
2023-12-21T07:48:37.156Z,92.38
2023-12-21T07:51:04.261Z,92.20
2023-12-21T07:53:31.108Z,63.72
2023-12-21T07:55:58.113Z,57.10
2023-12-21T07:58:24.975Z,50.67
2023-12-21T08:00:51.924Z,46.67
2023-12-21T08:03:22.472Z,39.13
2023-12-21T08:05:49.417Z,20.75
2023-12-21T08:08:16.306Z,24.80
2023-12-21T08:10:43.742Z,24.42
2023-12-21T08:13:10.973Z,26.70
2023-12-21T08:15:37.887Z,39.03
2023-12-21T08:18:06.029Z,61.28
2023-12-21T08:20:34.491Z,59.53
2023-12-21T08:23:04.582Z,67.03
2023-12-21T08:25:33.151Z,57.97
2023-12-21T08:28:00.218Z,54.17
2023-12-21T08:30:27.253Z,49.85
2023-12-21T08:32:54.207Z,45.45
2023-12-21T08:35:21.062Z,38.03
2023-12-21T08:37:48.041Z,25.02
2023-12-21T08:40:16.068Z,34.80
2023-12-21T08:42:43.070Z,24.10
2023-12-21T08:45:10.869Z,27.13
2023-12-21T08:47:42.781Z,30.10
2023-12-21T08:50:13.409Z,27.90
2023-12-21T08:52:40.910Z,24.95
2023-12-21T08:55:09.024Z,25.90
2023-12-21T08:57:39.201Z,32.35
2023-12-21T09:00:07.723Z,23.88
2023-12-21T09:02:36.040Z,45.85
2023-12-21T09:07:31.092Z,6.43
2023-12-21T09:09:58.718Z,2.90
2023-12-21T09:12:25.626Z,0.98
2023-12-21T09:14:52.520Z,0.30
2023-12-21T09:17:19.865Z,3.63
2023-12-21T09:19:47.439Z,4.72
2023-12-21T09:22:14.246Z,8.52
2023-12-21T09:24:41.115Z,5.50
2023-12-21T09:27:07.964Z,7.60
2023-12-21T09:29:34.753Z,9.20
2023-12-21T09:32:01.665Z,9.90
2023-12-21T09:34:29.176Z,6.00
2023-12-21T09:36:56.108Z,0.82
2023-12-21T09:39:22.940Z,7.95
2023-12-21T09:42:00.024Z,8.60
2023-12-21T09:44:30.301Z,2.35
2023-12-21T09:46:57.477Z,5.25
2023-12-21T09:49:24.642Z,3.55
2023-12-21T09:51:51.711Z,7.85
2023-12-21T09:54:18.909Z,5.70
2023-12-21T09:56:47.071Z,6.03
2023-12-21T09:59:14.293Z,1.10
2023-12-21T10:01:43.024Z,4.25
2023-12-21T10:04:14.532Z,11.93
2023-12-21T10:06:41.474Z,2.90
2023-12-21T10:09:09.609Z,9.02
2023-12-21T10:11:36.686Z,7.65
2023-12-21T10:14:05.251Z,1.92
2023-12-21T10:16:32.417Z,3.00
2023-12-21T10:18:59.357Z,8.07
2023-12-21T10:21:26.282Z,4.82
2023-12-21T10:23:54.385Z,3.20
2023-12-21T10:26:21.175Z,3.72
2023-12-21T10:28:48.765Z,7.38
2023-12-21T10:31:17.816Z,1.75
2023-12-21T10:33:44.838Z,4.00
2023-12-21T10:36:11.877Z,6.20
2023-12-21T10:38:38.744Z,7.60
2023-12-21T10:41:07.291Z,2.65
2023-12-21T10:43:35.849Z,2.28
2023-12-21T10:46:04.081Z,0.60
2023-12-21T10:48:33.606Z,4.13
2023-12-21T10:51:00.478Z,4.65
2023-12-21T10:53:27.525Z,4.90
2023-12-21T10:55:55.385Z,2.72
2023-12-21T10:58:23.131Z,1.90
2023-12-21T11:00:50.939Z,12.48
2023-12-21T11:03:18.635Z,8.43
2023-12-21T11:05:46.317Z,1.42
2023-12-21T11:08:13.410Z,5.28
2023-12-21T11:10:40.418Z,0.40
2023-12-21T11:13:07.565Z,5.18
2023-12-21T11:15:34.473Z,2.08
2023-12-21T11:18:04.783Z,2.88
2023-12-21T11:20:42.218Z,8.68
2023-12-21T11:23:13.760Z,3.35
2023-12-21T11:25:40.830Z,4.50
2023-12-21T11:28:09.999Z,2.88
2023-12-21T11:30:37.238Z,10.95
2023-12-21T11:33:08.475Z,2.03
2023-12-21T11:35:35.584Z,3.63
2023-12-21T11:38:09.250Z,3.88
2023-12-21T11:40:36.681Z,4.65
2023-12-21T11:43:07.210Z,2.42
2023-12-21T11:45:35.404Z,2.63
2023-12-21T11:48:05.369Z,23.52
2023-12-21T11:50:35.228Z,3.35
2023-12-21T11:53:14.812Z,2.85
2023-12-21T11:55:44.786Z,0.77
2023-12-21T11:58:26.770Z,7.35
2023-12-21T12:00:55.810Z,4.57
2023-12-21T12:03:23.887Z,4.65
2023-12-21T12:05:54.528Z,1.80
2023-12-21T12:08:24.760Z,5.32
2023-12-21T12:10:52.578Z,3.33
2023-12-21T12:13:25.295Z,5.28
2023-12-21T12:15:53.843Z,3.53
2023-12-21T12:18:21.168Z,2.67
2023-12-21T12:20:51.657Z,5.45
2023-12-21T12:23:19.102Z,1.23
2023-12-21T12:25:49.768Z,0.77
2023-12-21T12:28:18.943Z,3.42
2023-12-21T12:30:46.566Z,7.80
2023-12-21T12:33:13.911Z,6.13
2023-12-21T12:35:41.779Z,0.77
2023-12-21T12:38:09.021Z,1.98
2023-12-21T12:40:36.343Z,3.67
2023-12-21T12:43:05.341Z,3.05
2023-12-21T12:45:34.959Z,0.73
2023-12-21T12:48:02.304Z,0.93
2023-12-21T12:50:29.163Z,3.35
2023-12-21T12:52:56.142Z,3.10
2023-12-21T12:55:24.707Z,2.63
2023-12-21T12:57:56.800Z,7.13
2023-12-21T13:00:25.005Z,2.60
2023-12-21T13:02:51.802Z,1.73
2023-12-21T13:05:20.080Z,4.22
2023-12-21T13:07:47.540Z,4.43
2023-12-21T13:10:15.525Z,1.45
2023-12-21T13:12:43.981Z,6.97
2023-12-21T13:15:14.313Z,4.85
2023-12-21T13:17:41.802Z,4.18
2023-12-21T13:20:11.204Z,6.50
2023-12-21T13:22:38.503Z,2.15
2023-12-21T13:25:07.464Z,3.38
2023-12-21T13:27:35.345Z,4.07
2023-12-21T13:30:02.749Z,9.27
2023-12-21T13:32:29.935Z,4.45
2023-12-21T13:34:57.214Z,6.05
2023-12-21T13:37:24.137Z,4.57
2023-12-21T13:39:51.139Z,8.68
2023-12-21T13:42:18.050Z,12.15
2023-12-21T13:44:45.020Z,4.70
2023-12-21T13:47:11.946Z,11.98
2023-12-21T13:49:39.203Z,1.55
2023-12-21T13:52:06.623Z,7.45
2023-12-21T13:54:33.763Z,4.63
2023-12-21T13:57:10.742Z,8.50
2023-12-21T14:02:10.192Z,4.68
2023-12-21T14:04:38.774Z,7.72
2023-12-21T14:07:06.467Z,6.30
2023-12-21T14:09:34.444Z,4.20
2023-12-21T14:14:33.547Z,11.32
2023-12-21T14:17:00.548Z,11.85
2023-12-21T14:19:27.506Z,9.32
2023-12-21T14:21:54.597Z,10.38
2023-12-21T14:24:21.848Z,10.93
2023-12-21T14:26:50.567Z,8.57
2023-12-21T14:31:45.574Z,5.60
2023-12-21T14:34:13.557Z,11.27
2023-12-21T14:36:40.612Z,7.80
2023-12-21T14:39:07.736Z,13.10
2023-12-21T14:41:38.030Z,40.85
2023-12-21T14:44:06.067Z,18.75
2023-12-21T14:46:33.137Z,10.20
2023-12-21T14:49:00.090Z,8.90
2023-12-21T14:51:26.946Z,11.30
2023-12-21T14:53:53.939Z,13.20
2023-12-21T14:56:20.870Z,14.63
2023-12-21T14:58:47.749Z,8.00
2023-12-21T15:01:14.760Z,16.52
2023-12-21T15:03:41.886Z,21.30
2023-12-21T15:06:08.898Z,17.70
2023-12-21T15:08:35.738Z,25.42
2023-12-21T15:11:02.992Z,14.23
2023-12-21T15:13:30.417Z,22.70
2023-12-21T15:15:57.625Z,25.60
2023-12-21T15:18:24.720Z,31.75
2023-12-21T15:20:51.657Z,32.17
2023-12-21T15:23:18.508Z,46.47
2023-12-21T15:25:45.573Z,30.55
2023-12-21T15:28:13.404Z,29.38
2023-12-21T15:30:40.499Z,32.20
2023-12-21T15:33:07.379Z,43.33
2023-12-21T15:35:34.533Z,52.47
2023-12-21T15:38:04.468Z,85.63
2023-12-21T15:40:31.420Z,36.38
2023-12-21T15:42:58.442Z,20.95
2023-12-21T15:45:25.440Z,29.20
2023-12-21T15:47:52.414Z,28.30
2023-12-21T15:50:19.464Z,35.13
2023-12-21T15:52:46.638Z,26.40
2023-12-21T15:55:14.914Z,37.10
2023-12-21T15:57:41.912Z,23.42
2023-12-21T16:00:11.495Z,26.40
2023-12-21T16:02:38.567Z,33.58
2023-12-21T16:05:06.117Z,53.67
2023-12-21T16:07:33.072Z,87.65
2023-12-21T16:09:59.919Z,117.20
2023-12-21T16:12:27.358Z,54.60
2023-12-21T16:14:54.166Z,48.17
2023-12-21T16:17:23.496Z,37.92
2023-12-21T16:19:51.450Z,34.97
2023-12-21T16:22:20.758Z,41.30
2023-12-21T16:24:47.933Z,47.58
2023-12-21T16:27:14.877Z,40.85
2023-12-21T16:29:42.412Z,37.05
2023-12-21T16:32:10.511Z,47.10
2023-12-21T16:34:40.273Z,48.40
2023-12-21T16:37:07.770Z,48.13
2023-12-21T16:39:34.991Z,41.33
2023-12-21T16:42:02.025Z,61.70
2023-12-21T16:44:29.027Z,75.10
2023-12-21T16:46:56.036Z,60.42
2023-12-21T16:49:23.686Z,47.42
2023-12-21T16:51:50.744Z,39.10
2023-12-21T16:54:17.629Z,61.58
2023-12-21T16:56:44.892Z,32.05
2023-12-21T16:59:12.047Z,23.45
2023-12-21T17:01:38.978Z,41.55
2023-12-21T17:04:06.023Z,47.25
2023-12-21T17:06:32.944Z,102.40
2023-12-21T17:09:00.334Z,62.17
2023-12-21T17:11:27.162Z,42.08
2023-12-21T17:13:54.130Z,36.33
2023-12-21T17:16:24.440Z,33.40
2023-12-21T17:18:52.138Z,27.88
2023-12-21T17:21:19.131Z,31.08
2023-12-21T17:23:47.123Z,20.50
2023-12-21T17:26:13.918Z,30.60
2023-12-21T17:28:41.829Z,35.17
2023-12-21T17:31:08.919Z,48.70
2023-12-21T17:33:38.632Z,34.53
2023-12-21T17:36:05.679Z,31.40
2023-12-21T17:38:32.515Z,19.67
2023-12-21T17:40:59.433Z,14.65
2023-12-21T17:43:27.017Z,20.45
2023-12-21T17:45:53.898Z,15.82
2023-12-21T17:48:20.827Z,17.15
2023-12-21T17:50:47.786Z,9.77
2023-12-21T17:53:14.635Z,25.33
2023-12-21T17:55:43.398Z,34.85
2023-12-21T17:58:10.321Z,53.72
2023-12-21T18:00:37.239Z,42.15
2023-12-21T18:03:05.131Z,35.22
2023-12-21T18:05:32.047Z,45.40
2023-12-21T18:07:59.433Z,37.05
2023-12-21T18:10:26.418Z,31.83
2023-12-21T18:12:53.356Z,47.28
2023-12-21T18:15:20.364Z,47.17
2023-12-21T18:17:47.821Z,42.17
2023-12-21T18:20:18.361Z,35.55
2023-12-21T18:22:45.528Z,44.00
2023-12-21T18:25:12.527Z,40.15
2023-12-21T18:27:39.861Z,48.97
2023-12-21T18:30:07.614Z,28.77
2023-12-21T18:32:34.746Z,39.38
2023-12-21T18:35:01.821Z,47.60
2023-12-21T18:37:28.864Z,46.95
2023-12-21T18:39:56.322Z,43.80
2023-12-21T18:42:23.256Z,62.40
2023-12-21T18:44:50.172Z,51.90
2023-12-21T18:47:18.454Z,49.72
2023-12-21T18:49:46.307Z,66.38
2023-12-21T18:52:13.431Z,48.42
2023-12-21T18:54:41.539Z,35.60
2023-12-21T18:57:08.623Z,98.28
2023-12-21T18:59:35.775Z,53.03
2023-12-21T19:02:02.756Z,34.33
2023-12-21T19:04:29.696Z,33.10
2023-12-21T19:06:56.760Z,29.83
2023-12-21T19:09:23.757Z,24.02
2023-12-21T19:11:50.691Z,23.58
2023-12-21T19:14:18.473Z,72.35
2023-12-21T19:16:45.717Z,63.22
2023-12-21T19:19:12.916Z,54.17
2023-12-21T19:21:46.056Z,62.30
2023-12-21T19:24:13.067Z,56.30
2023-12-21T19:26:39.889Z,54.53
2023-12-21T19:29:07.104Z,74.93
2023-12-21T19:31:34.136Z,78.85
2023-12-21T19:34:01.144Z,50.75
2023-12-21T19:36:28.197Z,63.38
2023-12-21T19:38:55.290Z,60.95
2023-12-21T19:41:22.392Z,62.47
2023-12-21T19:43:49.410Z,57.80
2023-12-21T19:46:18.555Z,49.28
2023-12-21T19:51:12.563Z,30.05
2023-12-21T19:53:40.423Z,44.85
2023-12-21T19:56:08.808Z,38.92
2023-12-21T19:58:36.216Z,34.63
2023-12-21T20:01:03.458Z,39.50
2023-12-21T20:03:30.437Z,24.00
2023-12-21T20:05:57.748Z,29.38
2023-12-21T20:08:24.736Z,23.50
2023-12-21T20:10:51.697Z,50.83
2023-12-21T20:13:18.944Z,35.85
2023-12-21T20:15:45.989Z,34.20
2023-12-21T20:18:13.011Z,41.35
2023-12-21T20:20:39.923Z,34.15
2023-12-21T20:23:09.522Z,28.75
2023-12-21T20:25:37.095Z,29.42
2023-12-21T20:28:08.926Z,30.05
2023-12-21T20:30:36.969Z,35.97
2023-12-21T20:33:05.262Z,42.97
2023-12-21T20:35:33.312Z,61.72
2023-12-21T20:38:00.431Z,36.75
2023-12-21T20:40:27.463Z,34.55
2023-12-21T20:42:55.284Z,38.78
2023-12-21T20:45:22.138Z,33.03
2023-12-21T20:47:49.298Z,36.78
2023-12-21T20:50:18.761Z,35.80
2023-12-21T20:52:46.118Z,37.13
2023-12-21T20:55:15.513Z,38.80
2023-12-21T20:57:42.648Z,37.58
2023-12-21T21:00:10.616Z,27.48
2023-12-21T21:02:37.485Z,42.78
2023-12-21T21:05:05.512Z,56.40
2023-12-21T21:07:33.009Z,31.10
2023-12-21T21:10:00.235Z,22.92
2023-12-21T21:12:27.194Z,16.67
2023-12-21T21:14:54.399Z,20.40
2023-12-21T21:17:25.116Z,23.23
2023-12-21T21:19:52.820Z,23.65
2023-12-21T21:22:20.166Z,21.17
2023-12-21T21:24:47.764Z,14.55
2023-12-21T21:27:14.611Z,41.08
2023-12-21T21:29:41.457Z,47.88
2023-12-21T21:32:08.553Z,58.10
2023-12-21T21:34:36.975Z,49.75
2023-12-21T21:37:04.640Z,47.03
2023-12-21T21:39:32.270Z,56.00
2023-12-21T21:41:59.950Z,65.95
2023-12-21T21:44:31.223Z,45.08
2023-12-21T21:46:58.119Z,51.53
2023-12-21T21:49:25.261Z,44.15
2023-12-21T21:51:52.256Z,36.17
2023-12-21T21:54:19.111Z,29.27
2023-12-21T21:56:45.923Z,32.25
2023-12-21T21:59:14.050Z,40.20
2023-12-21T22:01:44.752Z,48.55
2023-12-21T22:04:11.692Z,53.15
2023-12-21T22:06:38.712Z,47.60
2023-12-21T22:09:05.973Z,67.28
2023-12-21T22:11:33.694Z,55.08
2023-12-21T22:14:01.226Z,44.13
2023-12-21T22:16:28.273Z,43.15
2023-12-21T22:18:55.895Z,29.17
2023-12-21T22:21:23.015Z,31.02
2023-12-21T22:23:49.856Z,25.63
2023-12-21T22:26:20.809Z,32.72
2023-12-21T22:28:48.181Z,27.30
2023-12-21T22:31:15.216Z,29.40
2023-12-21T22:33:42.152Z,28.85
2023-12-21T22:36:09.963Z,31.88
2023-12-21T22:38:37.181Z,27.38
2023-12-21T22:41:05.275Z,28.48
2023-12-21T22:43:41.679Z,26.25
2023-12-21T22:46:09.873Z,26.15
2023-12-21T22:48:37.101Z,29.17
2023-12-21T22:51:04.211Z,28.63
2023-12-21T22:53:32.259Z,29.05
2023-12-21T22:55:59.096Z,32.90
2023-12-21T22:58:26.373Z,32.25
2023-12-21T23:00:53.266Z,33.30
2023-12-21T23:03:20.203Z,49.30
2023-12-21T23:05:47.269Z,42.00
2023-12-21T23:08:14.083Z,34.95
2023-12-21T23:10:44.496Z,46.88
2023-12-21T23:13:18.661Z,45.45
2023-12-21T23:15:46.247Z,33.67
2023-12-21T23:18:13.530Z,36.47
2023-12-21T23:20:40.564Z,35.78
2023-12-21T23:23:07.729Z,47.58
2023-12-21T23:25:34.883Z,41.33
2023-12-21T23:28:02.091Z,35.92
2023-12-21T23:30:29.030Z,33.85
2023-12-21T23:32:55.973Z,39.67
2023-12-21T23:35:23.842Z,36.80
2023-12-21T23:37:51.589Z,43.22
2023-12-21T23:40:19.145Z,30.85
2023-12-21T23:42:46.587Z,31.95
2023-12-21T23:45:13.815Z,40.78
2023-12-21T23:47:41.075Z,36.05
2023-12-21T23:50:09.102Z,44.25
2023-12-21T23:52:36.508Z,35.88
2023-12-21T23:55:03.505Z,38.75
2023-12-21T23:57:30.821Z,29.75
2023-12-21T23:59:57.758Z,36.97
